createdAt,value
2023-06-04T00:00:02.317Z,31.00
2023-06-04T00:02:30.066Z,31.00
2023-06-04T00:04:58.455Z,31.00
2023-06-04T00:07:26.171Z,31.00
2023-06-04T00:09:55.750Z,31.00
2023-06-04T00:12:23.489Z,31.00
2023-06-04T00:14:51.233Z,31.00
2023-06-04T00:17:18.957Z,31.00
2023-06-04T00:19:46.718Z,31.00
2023-06-04T00:22:14.488Z,31.00
2023-06-04T00:24:42.363Z,31.00
2023-06-04T00:27:11.485Z,31.00
2023-06-04T00:29:39.210Z,30.90
2023-06-04T00:32:07.880Z,31.00
2023-06-04T00:34:35.823Z,30.90
2023-06-04T00:37:03.615Z,30.90
2023-06-04T00:39:31.433Z,30.90
2023-06-04T00:41:59.146Z,30.90
2023-06-04T00:44:28.337Z,30.90
2023-06-04T00:46:56.110Z,30.90
2023-06-04T00:49:23.876Z,30.90
2023-06-04T00:51:52.497Z,30.90
2023-06-04T00:54:21.612Z,30.90
2023-06-04T00:56:49.938Z,30.90
2023-06-04T00:59:18.649Z,30.90
2023-06-04T01:01:53.487Z,30.90
2023-06-04T01:04:28.016Z,30.90
2023-06-04T01:06:59.927Z,30.90
2023-06-04T01:09:28.471Z,30.90
2023-06-04T01:11:58.560Z,30.90
2023-06-04T01:14:27.040Z,30.90
2023-06-04T01:17:03.996Z,30.90
2023-06-04T01:20:01.656Z,30.90
2023-06-04T01:22:37.270Z,30.90
2023-06-04T01:25:07.512Z,30.90
2023-06-04T01:27:36.894Z,30.90
2023-06-04T01:30:06.083Z,30.80
2023-06-04T01:32:35.966Z,30.90
2023-06-04T01:35:03.672Z,30.80
2023-06-04T01:37:31.356Z,30.80
2023-06-04T01:39:59.067Z,30.80
2023-06-04T01:42:26.779Z,30.80
2023-06-04T01:44:54.524Z,30.80
2023-06-04T01:47:22.262Z,30.80
2023-06-04T01:49:51.382Z,30.80
2023-06-04T01:52:19.104Z,30.80
2023-06-04T01:54:46.989Z,30.80
2023-06-04T01:57:14.720Z,30.80
2023-06-04T01:59:43.228Z,30.80
2023-06-04T02:02:11.030Z,30.80
2023-06-04T02:04:42.344Z,30.80
2023-06-04T02:07:11.833Z,30.80
2023-06-04T02:09:39.534Z,30.80
2023-06-04T02:12:08.499Z,30.80
2023-06-04T02:14:36.343Z,30.80
2023-06-04T02:17:05.654Z,30.80
2023-06-04T02:19:34.973Z,30.80
2023-06-04T02:22:02.927Z,30.80
2023-06-04T02:24:32.035Z,30.70
2023-06-04T02:26:59.808Z,30.70
2023-06-04T02:29:27.699Z,30.70
2023-06-04T02:31:55.473Z,30.70
2023-06-04T02:34:24.452Z,30.70
2023-06-04T02:36:52.237Z,30.70
2023-06-04T02:39:20.223Z,30.70
2023-06-04T02:41:49.269Z,30.70
2023-06-04T02:44:17.017Z,30.70
2023-06-04T02:46:45.674Z,30.70
2023-06-04T02:49:14.762Z,30.70
2023-06-04T02:51:42.648Z,30.70
2023-06-04T02:54:10.626Z,30.70
2023-06-04T02:56:39.119Z,30.70
2023-06-04T02:59:12.120Z,30.70
2023-06-04T03:01:42.330Z,30.70
2023-06-04T03:04:11.281Z,30.70
2023-06-04T03:06:39.992Z,30.70
2023-06-04T03:09:08.215Z,30.70
2023-06-04T03:11:36.078Z,30.70
2023-06-04T03:14:03.803Z,30.60
2023-06-04T03:16:33.009Z,30.70
2023-06-04T03:19:00.903Z,30.60
2023-06-04T03:21:53.257Z,30.60
2023-06-04T03:24:21.064Z,30.60
2023-06-04T03:26:48.786Z,30.60
2023-06-04T03:29:16.517Z,30.60
2023-06-04T03:31:47.596Z,30.60
2023-06-04T03:34:15.321Z,30.60
2023-06-04T03:36:43.324Z,30.60
2023-06-04T03:39:11.187Z,30.60
2023-06-04T03:41:38.912Z,30.60
2023-06-04T03:44:06.614Z,30.60
2023-06-04T03:46:34.782Z,30.60
2023-06-04T03:49:04.632Z,30.60
2023-06-04T03:51:33.958Z,30.60
2023-06-04T03:54:01.721Z,30.50
2023-06-04T03:56:29.489Z,30.60
2023-06-04T03:58:57.237Z,30.50
2023-06-04T04:01:25.479Z,30.50
2023-06-04T04:03:53.783Z,30.50
2023-06-04T04:06:23.371Z,30.50
2023-06-04T04:08:51.097Z,30.50
2023-06-04T04:11:19.128Z,30.50
2023-06-04T04:13:47.696Z,30.50
2023-06-04T04:16:15.780Z,30.50
2023-06-04T04:18:44.759Z,30.50
2023-06-04T04:21:12.670Z,30.50
2023-06-04T04:23:42.222Z,30.50
2023-06-04T04:26:11.085Z,30.50
2023-06-04T04:28:39.404Z,30.50
2023-06-04T04:31:07.820Z,30.50
2023-06-04T04:33:40.409Z,30.50
2023-06-04T04:36:13.619Z,30.50
2023-06-04T04:38:42.805Z,30.50
2023-06-04T04:41:10.556Z,30.40
2023-06-04T04:43:40.433Z,30.50
2023-06-04T04:46:08.790Z,30.40
2023-06-04T04:48:36.643Z,30.40
2023-06-04T04:51:04.656Z,30.40
2023-06-04T04:53:32.437Z,30.40
2023-06-04T04:56:01.548Z,30.40
2023-06-04T04:58:29.298Z,30.40
2023-06-04T05:00:57.048Z,30.40
2023-06-04T05:03:24.758Z,30.40
2023-06-04T05:05:52.491Z,30.40
2023-06-04T05:08:20.235Z,30.40
2023-06-04T05:10:47.980Z,30.40
2023-06-04T05:13:17.624Z,30.40
2023-06-04T05:15:45.408Z,30.40
2023-06-04T05:18:13.165Z,30.40
2023-06-04T05:20:40.949Z,30.40
2023-06-04T05:23:08.675Z,30.40
2023-06-04T05:25:36.522Z,30.40
2023-06-04T05:28:04.390Z,30.40
2023-06-04T05:30:34.773Z,30.40
2023-06-04T05:33:02.548Z,30.40
2023-06-04T05:35:30.373Z,30.40
2023-06-04T05:37:58.150Z,30.40
2023-06-04T05:40:26.040Z,30.40
2023-06-04T05:42:53.801Z,30.40
2023-06-04T05:45:21.528Z,30.30
2023-06-04T05:47:50.701Z,30.30
2023-06-04T05:50:18.525Z,30.30
2023-06-04T05:52:46.460Z,30.30
2023-06-04T05:55:15.410Z,30.40
2023-06-04T05:57:43.172Z,30.30
2023-06-04T06:00:12.067Z,30.30
2023-06-04T06:02:40.096Z,30.30
2023-06-04T06:05:10.239Z,30.40
2023-06-04T06:07:38.093Z,30.40
2023-06-04T06:10:06.957Z,30.40
2023-06-04T06:12:34.780Z,30.40
2023-06-04T06:15:02.522Z,30.40
2023-06-04T06:17:30.604Z,30.40
2023-06-04T06:19:58.449Z,30.50
2023-06-04T06:22:28.423Z,30.50
2023-06-04T06:24:56.192Z,30.50
2023-06-04T06:27:23.900Z,30.60
2023-06-04T06:29:51.624Z,30.60
2023-06-04T06:32:19.418Z,30.60
2023-06-04T06:34:47.180Z,30.70
2023-06-04T06:37:14.919Z,30.70
2023-06-04T06:39:44.035Z,30.70
2023-06-04T06:42:11.867Z,30.70
2023-06-04T06:44:39.572Z,30.70
2023-06-04T06:47:07.483Z,30.80
2023-06-04T06:49:35.361Z,30.80
2023-06-04T06:52:03.095Z,30.80
2023-06-04T06:54:30.895Z,30.80
2023-06-04T06:57:00.055Z,30.80
2023-06-04T06:59:27.820Z,30.80
2023-06-04T07:01:55.662Z,30.80
2023-06-04T07:04:23.464Z,30.80
2023-06-04T07:06:51.192Z,30.80
2023-06-04T07:09:18.992Z,30.80
2023-06-04T07:11:46.927Z,30.80
2023-06-04T07:14:16.157Z,30.90
2023-06-04T07:16:43.922Z,30.90
2023-06-04T07:19:11.769Z,30.90
2023-06-04T07:21:39.504Z,30.90
2023-06-04T07:24:07.958Z,30.90
2023-06-04T07:26:35.858Z,30.90
2023-06-04T07:29:03.668Z,30.90
2023-06-04T07:31:32.816Z,30.90
2023-06-04T07:34:00.794Z,30.90
2023-06-04T07:36:28.544Z,30.90
2023-06-04T07:38:56.328Z,30.90
2023-06-04T07:41:24.068Z,30.90
2023-06-04T07:43:51.803Z,30.90
2023-06-04T07:46:20.485Z,30.90
2023-06-04T07:48:49.626Z,30.90
2023-06-04T07:51:17.363Z,30.90
2023-06-04T07:53:46.090Z,30.90
2023-06-04T07:56:13.857Z,30.90
2023-06-04T07:58:41.782Z,30.90
2023-06-04T08:01:10.202Z,30.90
2023-06-04T08:03:38.466Z,30.90
2023-06-04T08:06:08.341Z,30.90
2023-06-04T08:08:36.059Z,30.90
2023-06-04T08:11:03.994Z,30.90
2023-06-04T08:13:31.787Z,30.80
2023-06-04T08:15:59.529Z,30.80
2023-06-04T08:18:27.327Z,30.80
2023-06-04T08:20:55.067Z,30.80
2023-06-04T08:23:24.155Z,30.80
2023-06-04T08:25:52.086Z,30.80
2023-06-04T08:28:20.265Z,30.80
2023-06-04T08:30:48.009Z,30.80
2023-06-04T08:33:15.965Z,30.80
2023-06-04T08:35:43.774Z,30.80
2023-06-04T08:38:11.539Z,30.80
2023-06-04T08:40:40.692Z,30.80
2023-06-04T08:43:09.101Z,30.80
2023-06-04T08:45:41.143Z,30.80
2023-06-04T08:48:12.782Z,30.80
2023-06-04T08:50:44.373Z,30.80
2023-06-04T08:53:15.740Z,30.80
2023-06-04T08:55:44.970Z,30.80
2023-06-04T08:58:14.021Z,30.80
2023-06-04T09:00:41.848Z,30.80
2023-06-04T09:03:11.651Z,30.80
2023-06-04T09:05:43.338Z,30.80
2023-06-04T09:08:14.098Z,30.80
2023-06-04T09:10:42.848Z,30.80
2023-06-04T09:13:12.421Z,30.80
2023-06-04T09:16:02.203Z,30.80
2023-06-04T09:18:30.491Z,30.80
2023-06-04T09:21:06.797Z,30.80
2023-06-04T09:23:36.976Z,30.80
2023-06-04T09:26:11.479Z,30.80
2023-06-04T09:28:43.275Z,30.80
2023-06-04T09:31:11.937Z,30.80
2023-06-04T09:33:50.835Z,30.80
2023-06-04T09:36:19.375Z,30.80
2023-06-04T09:38:48.065Z,30.80
2023-06-04T09:41:16.382Z,30.80
2023-06-04T09:43:45.801Z,30.80
2023-06-04T09:46:14.578Z,30.80
2023-06-04T09:49:26.326Z,30.80
2023-06-04T09:51:54.637Z,30.80
2023-06-04T09:54:22.391Z,30.80
2023-06-04T09:56:50.167Z,30.80
2023-06-04T09:59:19.656Z,30.80
2023-06-04T10:01:48.176Z,30.80
2023-06-04T10:04:17.899Z,30.80
2023-06-04T10:06:46.049Z,30.80
2023-06-04T10:09:15.637Z,30.80
2023-06-04T10:11:49.059Z,30.80
2023-06-04T10:14:23.841Z,30.80
2023-06-04T10:16:53.325Z,30.80
2023-06-04T10:19:21.835Z,30.80
2023-06-04T10:21:49.960Z,30.80
2023-06-04T10:24:18.081Z,30.80
2023-06-04T10:26:45.917Z,30.80
2023-06-04T10:29:15.962Z,30.80
2023-06-04T10:31:46.170Z,30.80
2023-06-04T10:34:14.257Z,30.90
2023-06-04T10:36:46.225Z,30.90
2023-06-04T10:39:14.607Z,30.90
2023-06-04T10:41:42.497Z,30.90
2023-06-04T10:44:10.286Z,30.90
2023-06-04T10:46:43.842Z,30.90
2023-06-04T10:49:13.634Z,30.90
2023-06-04T10:51:42.010Z,30.90
2023-06-04T10:54:09.799Z,30.90
2023-06-04T10:56:38.216Z,30.90
2023-06-04T10:59:16.388Z,30.90
2023-06-04T11:01:44.452Z,30.90
2023-06-04T11:04:22.814Z,30.90
2023-06-04T11:07:02.998Z,30.90
2023-06-04T11:09:32.187Z,30.90
2023-06-04T11:12:01.234Z,30.90
2023-06-04T11:14:29.035Z,30.90
2023-06-04T11:16:56.741Z,30.90
2023-06-04T11:19:25.906Z,30.90
2023-06-04T11:21:53.661Z,30.90
2023-06-04T11:24:21.494Z,30.90
2023-06-04T11:27:00.193Z,30.90
2023-06-04T11:29:35.035Z,30.90
2023-06-04T11:32:02.752Z,30.90
2023-06-04T11:34:33.021Z,30.90
2023-06-04T11:37:10.661Z,31.00
2023-06-04T11:39:40.609Z,30.90
2023-06-04T11:42:10.560Z,31.00
2023-06-04T11:44:38.565Z,31.00
2023-06-04T11:47:08.436Z,31.00
2023-06-04T11:49:40.877Z,31.00
2023-06-04T11:52:09.913Z,30.90
2023-06-04T11:54:39.690Z,31.00
2023-06-04T11:57:07.834Z,31.00
2023-06-04T11:59:36.511Z,31.00
2023-06-04T12:02:05.225Z,31.00
2023-06-04T12:04:33.219Z,31.00
2023-06-04T12:07:03.621Z,31.00
2023-06-04T12:09:34.066Z,31.00
2023-06-04T12:12:02.701Z,31.00
2023-06-04T12:14:31.155Z,31.00
2023-06-04T12:16:59.435Z,31.00
2023-06-04T12:19:27.507Z,31.00
2023-06-04T12:22:04.678Z,31.00
2023-06-04T12:24:35.409Z,31.00
2023-06-04T12:27:05.232Z,31.00
2023-06-04T12:29:33.246Z,31.00
2023-06-04T12:32:05.923Z,31.00
2023-06-04T12:34:33.825Z,31.00
2023-06-04T12:37:04.266Z,31.00
2023-06-04T12:39:53.915Z,31.00
2023-06-04T12:42:22.035Z,31.00
2023-06-04T12:44:49.965Z,31.00
2023-06-04T12:47:18.228Z,31.00
2023-06-04T12:49:46.352Z,31.00
2023-06-04T12:52:16.119Z,31.00
2023-06-04T12:54:44.189Z,31.00
2023-06-04T12:57:12.119Z,31.00
2023-06-04T12:59:40.607Z,31.00
2023-06-04T13:02:08.990Z,31.00
2023-06-04T13:04:36.742Z,31.00
2023-06-04T13:07:04.542Z,31.00
2023-06-04T13:09:36.058Z,31.00
2023-06-04T13:12:04.789Z,31.00
2023-06-04T13:14:34.167Z,31.00
2023-06-04T13:17:14.138Z,31.00
2023-06-04T13:19:48.887Z,31.00
2023-06-04T13:22:16.612Z,31.00
2023-06-04T13:24:45.721Z,31.00
2023-06-04T13:27:13.470Z,31.00
2023-06-04T13:29:42.587Z,31.00
2023-06-04T13:32:12.698Z,31.00
2023-06-04T13:34:40.585Z,31.00
2023-06-04T13:37:10.878Z,31.00
2023-06-04T13:39:38.645Z,31.00
2023-06-04T13:42:08.379Z,31.00
2023-06-04T13:44:36.369Z,31.10
2023-06-04T13:47:05.182Z,31.10
2023-06-04T13:49:35.200Z,31.10
2023-06-04T13:52:03.194Z,31.10
2023-06-04T13:54:30.984Z,31.10
2023-06-04T13:56:58.731Z,31.10
2023-06-04T13:59:27.825Z,31.10
2023-06-04T14:01:55.691Z,31.10
2023-06-04T14:04:23.533Z,31.10
2023-06-04T14:06:51.290Z,31.10
2023-06-04T14:09:19.045Z,31.10
2023-06-04T14:11:50.732Z,31.10
2023-06-04T14:14:19.383Z,31.10
2023-06-04T14:16:49.072Z,31.10
2023-06-04T14:19:17.466Z,31.10
2023-06-04T14:21:45.548Z,31.10
2023-06-04T14:24:13.449Z,31.10
2023-06-04T14:26:41.383Z,31.10
2023-06-04T14:29:09.192Z,31.10
2023-06-04T14:31:36.994Z,31.10
2023-06-04T14:34:08.171Z,31.10
2023-06-04T14:36:35.959Z,31.10
2023-06-04T14:39:03.762Z,31.10
2023-06-04T14:41:31.556Z,31.10
2023-06-04T14:43:59.406Z,31.10
2023-06-04T14:46:27.761Z,31.10
2023-06-04T14:48:55.547Z,31.10
2023-06-04T14:51:24.698Z,31.10
2023-06-04T14:53:52.421Z,31.10
2023-06-04T14:56:20.220Z,31.10
2023-06-04T14:58:47.943Z,31.10
2023-06-04T15:01:17.397Z,31.10
2023-06-04T15:03:45.340Z,31.10
2023-06-04T15:06:19.259Z,31.10
2023-06-04T15:08:49.320Z,31.10
2023-06-04T15:11:17.555Z,31.10
2023-06-04T15:13:45.345Z,31.10
2023-06-04T15:16:13.250Z,31.10
2023-06-04T15:18:41.247Z,31.10
2023-06-04T15:21:09.539Z,31.10
2023-06-04T15:23:38.196Z,31.10
2023-06-04T15:26:07.411Z,31.10
2023-06-04T15:28:35.142Z,31.10
2023-06-04T15:31:02.915Z,31.10
2023-06-04T15:33:30.781Z,31.10
2023-06-04T15:35:58.606Z,31.10
2023-06-04T15:38:26.426Z,31.10
2023-06-04T15:40:54.249Z,31.10
2023-06-04T15:43:23.342Z,31.10
2023-06-04T15:45:51.180Z,31.10
2023-06-04T15:48:19.547Z,31.10
2023-06-04T15:50:47.381Z,31.10
2023-06-04T15:53:16.363Z,31.10
2023-06-04T15:55:44.273Z,31.10
2023-06-04T15:58:12.062Z,31.10
2023-06-04T16:00:41.148Z,31.10
2023-06-04T16:03:08.944Z,31.10
2023-06-04T16:05:36.793Z,31.10
2023-06-04T16:08:04.724Z,31.10
2023-06-04T16:10:32.911Z,31.10
2023-06-04T16:13:00.715Z,31.10
2023-06-04T16:15:28.482Z,31.10
2023-06-04T16:17:57.831Z,31.10
2023-06-04T16:20:25.796Z,31.10
2023-06-04T16:22:53.554Z,31.10
2023-06-04T16:25:21.303Z,31.10
2023-06-04T16:27:49.217Z,31.10
2023-06-04T16:30:18.072Z,31.10
2023-06-04T16:32:45.894Z,31.10
2023-06-04T16:35:15.207Z,31.10
2023-06-04T16:37:43.046Z,31.10
2023-06-04T16:40:12.040Z,31.10
2023-06-04T16:42:39.852Z,31.10
2023-06-04T16:45:09.199Z,31.10
2023-06-04T16:47:37.660Z,31.10
2023-06-04T16:50:06.459Z,31.10
2023-06-04T16:52:35.552Z,31.10
2023-06-04T16:55:03.351Z,31.10
2023-06-04T16:57:31.132Z,31.10
2023-06-04T17:00:02.541Z,31.10
2023-06-04T17:02:34.964Z,31.10
2023-06-04T17:05:12.680Z,31.10
2023-06-04T17:07:49.525Z,31.10
2023-06-04T17:10:17.868Z,31.10
2023-06-04T17:12:45.637Z,31.10
2023-06-04T17:15:13.490Z,31.10
2023-06-04T17:17:41.262Z,31.10
2023-06-04T17:20:09.764Z,31.10
2023-06-04T17:22:39.098Z,31.10
2023-06-04T17:25:10.152Z,31.10
2023-06-04T17:27:37.909Z,31.10
2023-06-04T17:30:07.034Z,31.10
2023-06-04T17:32:34.754Z,31.10
2023-06-04T17:35:02.510Z,31.10
2023-06-04T17:37:30.417Z,31.10
2023-06-04T17:39:58.196Z,31.10
2023-06-04T17:42:27.346Z,31.10
2023-06-04T17:44:55.064Z,31.10
2023-06-04T17:47:22.809Z,31.10
2023-06-04T17:49:50.928Z,31.10
2023-06-04T17:52:18.646Z,31.10
2023-06-04T17:54:46.904Z,31.10
2023-06-04T17:57:14.872Z,31.10
2023-06-04T17:59:43.958Z,31.10
2023-06-04T18:02:11.748Z,31.10
2023-06-04T18:04:39.484Z,31.10
2023-06-04T18:07:07.228Z,31.10
2023-06-04T18:09:35.005Z,31.10
2023-06-04T18:12:02.757Z,31.10
2023-06-04T18:14:30.494Z,31.10
2023-06-04T18:16:59.550Z,31.10
2023-06-04T18:19:27.299Z,31.10
2023-06-04T18:21:55.081Z,31.10
2023-06-04T18:24:23.240Z,31.10
2023-06-04T18:26:51.240Z,31.10
2023-06-04T18:29:18.936Z,31.10
2023-06-04T18:31:46.748Z,31.10
2023-06-04T18:34:21.297Z,31.10
2023-06-04T18:36:49.417Z,31.10
2023-06-04T18:39:17.324Z,31.10
2023-06-04T18:41:45.050Z,31.10
2023-06-04T18:44:12.788Z,31.10
2023-06-04T18:46:40.609Z,31.10
2023-06-04T18:49:08.754Z,31.10
2023-06-04T18:51:38.273Z,31.10
2023-06-04T18:54:06.181Z,31.10
2023-06-04T18:56:33.981Z,31.10
2023-06-04T18:59:01.720Z,31.10
2023-06-04T19:01:29.510Z,31.10
2023-06-04T19:03:57.342Z,31.10
2023-06-04T19:06:25.428Z,31.20
2023-06-04T19:08:54.537Z,31.10
2023-06-04T19:11:23.041Z,31.20
2023-06-04T19:13:51.054Z,31.20
2023-06-04T19:16:18.885Z,31.20
2023-06-04T19:18:46.701Z,31.20
2023-06-04T19:21:14.917Z,31.20
2023-06-04T19:23:42.734Z,31.20
2023-06-04T19:26:12.270Z,31.20
2023-06-04T19:28:40.140Z,31.20
2023-06-04T19:31:08.803Z,31.20
2023-06-04T19:33:37.450Z,31.20
2023-06-04T19:36:05.858Z,31.20
2023-06-04T19:38:33.825Z,31.20
2023-06-04T19:41:02.289Z,31.20
2023-06-04T19:43:31.409Z,31.20
2023-06-04T19:46:02.730Z,31.20
2023-06-04T19:48:30.529Z,31.20
2023-06-04T19:50:58.537Z,31.20
2023-06-04T19:53:26.318Z,31.20
2023-06-04T19:55:54.038Z,31.20
2023-06-04T19:58:21.830Z,31.20
2023-06-04T20:00:52.317Z,31.20
2023-06-04T20:03:20.208Z,31.20
2023-06-04T20:05:47.947Z,31.20
2023-06-04T20:08:16.540Z,31.20
2023-06-04T20:10:44.546Z,31.20
2023-06-04T20:13:12.292Z,31.20
2023-06-04T20:15:40.083Z,31.20
2023-06-04T20:18:09.215Z,31.20
2023-06-04T20:20:37.179Z,31.20
2023-06-04T20:23:04.880Z,31.30
2023-06-04T20:25:32.870Z,31.20
2023-06-04T20:28:00.843Z,31.30
2023-06-04T20:30:28.872Z,31.30
2023-06-04T20:32:56.673Z,31.30
2023-06-04T20:35:26.040Z,31.30
2023-06-04T20:37:54.971Z,31.30
2023-06-04T20:40:23.191Z,31.30
2023-06-04T20:42:51.438Z,31.30
2023-06-04T20:45:19.257Z,31.30
2023-06-04T20:47:47.216Z,31.30
2023-06-04T20:50:14.959Z,31.30
2023-06-04T20:52:44.105Z,31.30
2023-06-04T20:55:12.860Z,31.30
2023-06-04T20:57:40.702Z,31.30
2023-06-04T21:00:10.324Z,31.30
2023-06-04T21:02:38.141Z,31.30
2023-06-04T21:05:06.680Z,31.30
2023-06-04T21:07:34.407Z,31.30
2023-06-04T21:10:03.592Z,31.30
2023-06-04T21:12:31.312Z,31.30
2023-06-04T21:14:59.046Z,31.30
2023-06-04T21:17:26.888Z,31.30
2023-06-04T21:19:54.621Z,31.30
2023-06-04T21:22:22.527Z,31.30
2023-06-04T21:24:50.238Z,31.30
2023-06-04T21:27:19.328Z,31.30
2023-06-04T21:29:47.070Z,31.30
2023-06-04T21:32:14.923Z,31.30
2023-06-04T21:34:42.684Z,31.30
2023-06-04T21:37:10.627Z,31.30
2023-06-04T21:39:38.556Z,31.40
2023-06-04T21:42:06.709Z,31.40
2023-06-04T21:44:36.325Z,31.30
2023-06-04T21:47:04.404Z,31.40
2023-06-04T21:49:32.124Z,31.40
2023-06-04T21:52:03.397Z,31.40
2023-06-04T21:54:35.484Z,31.40
2023-06-04T21:57:03.196Z,31.40
2023-06-04T21:59:31.071Z,31.40
2023-06-04T22:02:00.178Z,31.40
2023-06-04T22:04:27.963Z,31.40
2023-06-04T22:06:55.775Z,31.40
2023-06-04T22:09:23.536Z,31.40
2023-06-04T22:11:51.371Z,31.40
2023-06-04T22:14:19.189Z,31.40
2023-06-04T22:16:46.884Z,31.40
2023-06-04T22:19:15.952Z,31.40
2023-06-04T22:21:43.666Z,31.40
2023-06-04T22:24:11.395Z,31.40
2023-06-04T22:26:39.254Z,31.40
2023-06-04T22:29:07.318Z,31.40
2023-06-04T22:31:35.169Z,31.40
2023-06-04T22:34:02.927Z,31.40
2023-06-04T22:36:32.041Z,31.40
2023-06-04T22:38:59.819Z,31.40
2023-06-04T22:41:28.104Z,31.40
2023-06-04T22:43:55.876Z,31.40
2023-06-04T22:46:23.750Z,31.40
2023-06-04T22:48:51.458Z,31.40
2023-06-04T22:51:19.659Z,31.40
2023-06-04T22:53:48.996Z,31.30
2023-06-04T22:56:16.766Z,31.40
2023-06-04T22:58:44.477Z,31.30
2023-06-04T23:01:12.204Z,31.30
2023-06-04T23:03:40.017Z,31.30
2023-06-04T23:06:08.001Z,31.30
2023-06-04T23:08:35.823Z,31.30
2023-06-04T23:11:04.909Z,31.30
2023-06-04T23:13:32.657Z,31.30
2023-06-04T23:16:00.387Z,31.30
2023-06-04T23:18:28.248Z,31.30
2023-06-04T23:20:55.945Z,31.30
2023-06-04T23:23:24.258Z,31.30
2023-06-04T23:25:52.004Z,31.30
2023-06-04T23:28:21.524Z,31.30
2023-06-04T23:30:49.706Z,31.30
2023-06-04T23:33:17.429Z,31.30
2023-06-04T23:35:45.468Z,31.30
2023-06-04T23:38:13.268Z,31.30
2023-06-04T23:40:41.184Z,31.30
2023-06-04T23:43:08.889Z,31.30
2023-06-04T23:45:37.962Z,31.30
2023-06-04T23:48:05.763Z,31.30
2023-06-04T23:50:33.580Z,31.30
2023-06-04T23:53:01.354Z,31.30
2023-06-04T23:55:29.073Z,31.30
2023-06-04T23:57:57.739Z,31.20
